createdAt,value
2018-11-22T00:01:13.510Z,29.83
2018-11-22T00:03:40.946Z,28.83
2018-11-22T00:06:08.365Z,30.37
2018-11-22T00:08:35.802Z,31.77
2018-11-22T00:11:03.224Z,30.47
2018-11-22T00:13:30.654Z,29.87
2018-11-22T00:15:58.082Z,31.30
2018-11-22T00:18:25.851Z,28.87
2018-11-22T00:20:53.256Z,30.07
2018-11-22T00:23:20.692Z,30.87
2018-11-22T00:25:48.139Z,28.00
2018-11-22T00:28:15.574Z,31.23
2018-11-22T00:30:43.009Z,32.17
2018-11-22T00:33:10.414Z,30.80
2018-11-22T00:35:37.861Z,32.03
2018-11-22T00:38:05.269Z,30.03
2018-11-22T00:40:32.705Z,31.03
2018-11-22T00:43:00.101Z,28.80
2018-11-22T00:45:27.555Z,30.40
2018-11-22T00:47:54.978Z,31.20
2018-11-22T00:50:22.396Z,31.67
2018-11-22T00:52:49.856Z,30.00
2018-11-22T00:55:17.310Z,31.77
2018-11-22T00:57:44.738Z,30.67
2018-11-22T01:00:12.200Z,31.40
2018-11-22T01:02:39.631Z,30.67
2018-11-22T01:05:07.050Z,32.37
2018-11-22T01:07:34.490Z,29.50
2018-11-22T01:10:01.911Z,31.23
2018-11-22T01:12:29.368Z,31.73
2018-11-22T01:14:56.774Z,30.10
2018-11-22T01:17:24.183Z,30.47
2018-11-22T01:19:51.614Z,31.53
2018-11-22T01:22:19.082Z,30.30
2018-11-22T01:24:46.484Z,30.43
2018-11-22T01:27:13.904Z,32.67
2018-11-22T01:29:41.342Z,32.23
2018-11-22T01:32:08.748Z,30.37
2018-11-22T01:34:36.192Z,32.60
2018-11-22T01:37:03.593Z,32.07
2018-11-22T01:39:31.017Z,31.27
2018-11-22T01:41:58.439Z,31.53
2018-11-22T01:44:25.871Z,30.00
2018-11-22T01:46:53.286Z,33.00
2018-11-22T01:49:20.746Z,30.90
2018-11-22T01:51:48.142Z,32.37
2018-11-22T01:54:15.580Z,30.47
2018-11-22T01:56:43.003Z,32.80
2018-11-22T01:59:10.437Z,32.80
2018-11-22T02:01:37.875Z,29.83
2018-11-22T02:04:05.285Z,33.17
2018-11-22T02:06:32.684Z,31.70
2018-11-22T02:09:00.117Z,33.50
2018-11-22T02:11:27.535Z,32.33
2018-11-22T02:13:55.027Z,30.63
2018-11-22T02:16:22.402Z,36.50
2018-11-22T02:18:49.834Z,32.10
2018-11-22T02:21:17.254Z,32.30
2018-11-22T02:23:44.722Z,29.10
2018-11-22T02:26:12.104Z,32.47
2018-11-22T02:28:39.533Z,31.53
2018-11-22T02:31:06.940Z,32.70
2018-11-22T02:33:34.357Z,32.67
2018-11-22T02:36:01.771Z,33.00
2018-11-22T02:38:29.201Z,32.83
2018-11-22T02:40:56.604Z,32.37
2018-11-22T02:43:24.051Z,31.43
2018-11-22T02:45:51.491Z,33.80
2018-11-22T02:48:18.938Z,32.13
2018-11-22T02:50:46.359Z,33.50
2018-11-22T02:53:13.779Z,32.53
2018-11-22T02:55:41.196Z,32.13
2018-11-22T02:58:08.645Z,31.53
2018-11-22T03:00:36.066Z,34.50
2018-11-22T03:03:03.470Z,35.37
2018-11-22T03:05:30.907Z,31.83
2018-11-22T03:07:58.327Z,31.07
2018-11-22T03:10:25.863Z,32.43
2018-11-22T03:12:53.281Z,31.53
2018-11-22T03:15:20.688Z,31.63
2018-11-22T03:17:48.119Z,32.10
2018-11-22T03:20:15.535Z,34.03
2018-11-22T03:22:42.968Z,31.53
2018-11-22T03:25:10.372Z,32.40
2018-11-22T03:27:37.784Z,32.30
2018-11-22T03:30:05.247Z,32.40
2018-11-22T03:32:32.672Z,32.03
2018-11-22T03:35:00.109Z,31.57
2018-11-22T03:37:27.529Z,35.17
2018-11-22T03:39:54.944Z,31.00
2018-11-22T03:42:22.401Z,30.70
2018-11-22T03:44:49.789Z,33.80
2018-11-22T03:47:17.211Z,34.00
2018-11-22T03:49:44.643Z,33.43
2018-11-22T03:52:12.047Z,32.93
2018-11-22T03:54:39.442Z,32.93
2018-11-22T03:57:06.880Z,32.47
2018-11-22T03:59:34.352Z,32.13
2018-11-22T04:02:01.790Z,31.90
2018-11-22T04:04:29.247Z,32.83
2018-11-22T04:06:56.653Z,32.17
2018-11-22T04:09:24.061Z,32.70
2018-11-22T04:11:51.496Z,31.77
2018-11-22T04:14:18.895Z,33.83
2018-11-22T04:16:46.317Z,32.10
2018-11-22T04:19:13.720Z,32.73
2018-11-22T04:21:41.161Z,32.97
2018-11-22T04:24:08.572Z,33.03
2018-11-22T04:26:35.991Z,32.97
2018-11-22T04:29:03.395Z,33.77
2018-11-22T04:31:30.856Z,31.63
2018-11-22T04:33:58.268Z,34.10
2018-11-22T04:36:25.677Z,34.57
2018-11-22T04:38:53.112Z,32.70
2018-11-22T04:41:20.522Z,35.30
2018-11-22T04:43:47.944Z,33.83
2018-11-22T04:46:15.356Z,34.43
2018-11-22T04:48:42.785Z,34.27
2018-11-22T04:51:10.192Z,33.80
2018-11-22T04:53:37.619Z,33.63
2018-11-22T04:56:05.018Z,33.70
2018-11-22T04:58:32.446Z,34.00
2018-11-22T05:00:59.881Z,36.03
2018-11-22T05:03:27.285Z,34.53
2018-11-22T05:05:54.692Z,35.43
2018-11-22T05:08:22.133Z,34.27
2018-11-22T05:10:49.577Z,32.40
2018-11-22T05:13:16.978Z,33.27
2018-11-22T05:15:44.395Z,34.60
2018-11-22T05:18:11.829Z,33.50
2018-11-22T05:20:39.253Z,33.43
2018-11-22T05:23:06.659Z,34.70
2018-11-22T05:25:34.093Z,33.90
2018-11-22T05:28:01.524Z,33.17
2018-11-22T05:30:28.934Z,33.33
2018-11-22T05:32:56.363Z,32.50
2018-11-22T05:35:23.776Z,34.07
2018-11-22T05:37:51.218Z,33.77
2018-11-22T05:40:18.628Z,32.83
2018-11-22T05:42:46.062Z,33.40
2018-11-22T05:45:13.520Z,33.50
2018-11-22T05:47:40.923Z,34.07
2018-11-22T05:50:08.384Z,31.97
2018-11-22T05:52:35.859Z,33.77
2018-11-22T05:55:03.280Z,32.83
2018-11-22T05:57:30.693Z,35.40
2018-11-22T05:59:58.487Z,32.67
2018-11-22T06:02:25.909Z,37.67
2018-11-22T06:04:53.338Z,32.97
2018-11-22T06:07:20.783Z,35.13
2018-11-22T06:09:48.182Z,32.57
2018-11-22T06:12:15.608Z,31.23
2018-11-22T06:14:43.040Z,31.93
2018-11-22T06:17:10.542Z,31.70
2018-11-22T06:19:37.976Z,33.40
2018-11-22T06:22:05.439Z,32.33
2018-11-22T06:24:32.862Z,34.10
2018-11-22T06:27:00.282Z,33.13
2018-11-22T06:29:27.739Z,31.80
2018-11-22T06:31:55.177Z,34.20
2018-11-22T06:34:22.580Z,34.37
2018-11-22T06:36:50.022Z,31.47
2018-11-22T06:39:17.445Z,33.03
2018-11-22T06:41:44.875Z,32.00
2018-11-22T06:44:12.273Z,34.73
2018-11-22T06:46:39.685Z,32.37
2018-11-22T06:49:07.084Z,33.63
2018-11-22T06:51:34.521Z,31.67
2018-11-22T06:54:01.934Z,34.43
2018-11-22T06:56:29.356Z,32.57
2018-11-22T06:58:56.792Z,34.67
2018-11-22T07:01:24.215Z,34.13
2018-11-22T07:03:51.647Z,35.97
2018-11-22T07:06:19.092Z,32.83
2018-11-22T07:08:46.514Z,35.37
2018-11-22T07:11:13.963Z,34.23
2018-11-22T07:13:41.368Z,32.53
2018-11-22T07:16:08.779Z,34.93
2018-11-22T07:18:36.241Z,34.47
2018-11-22T07:21:03.657Z,35.47
2018-11-22T07:23:31.096Z,35.57
2018-11-22T07:25:58.519Z,33.13
2018-11-22T07:28:25.937Z,34.60
2018-11-22T07:30:53.361Z,34.07
2018-11-22T07:33:20.792Z,33.60
2018-11-22T07:35:48.197Z,33.97
2018-11-22T07:38:15.666Z,33.10
2018-11-22T07:40:43.079Z,34.83
2018-11-22T07:43:10.521Z,36.07
2018-11-22T07:45:37.955Z,34.43
2018-11-22T07:48:05.385Z,36.40
2018-11-22T07:50:32.807Z,34.33
2018-11-22T07:53:00.229Z,32.90
2018-11-22T07:55:27.653Z,32.60
2018-11-22T07:57:55.059Z,33.80
2018-11-22T08:00:22.490Z,37.10
2018-11-22T08:02:49.930Z,35.07
2018-11-22T08:05:17.338Z,35.63
2018-11-22T08:07:44.754Z,34.73
2018-11-22T08:10:12.175Z,33.57
2018-11-22T08:12:39.677Z,36.23
2018-11-22T08:15:07.041Z,34.13
2018-11-22T08:17:34.449Z,34.57
2018-11-22T08:20:01.925Z,33.80
2018-11-22T08:22:29.357Z,34.60
2018-11-22T08:24:56.761Z,36.53
2018-11-22T08:27:24.191Z,34.83
2018-11-22T08:29:51.591Z,35.23
2018-11-22T08:32:19.039Z,35.07
2018-11-22T08:34:46.434Z,37.37
2018-11-22T08:37:13.862Z,37.70
2018-11-22T08:39:41.270Z,36.83
2018-11-22T08:42:08.812Z,34.33
2018-11-22T08:44:36.208Z,34.93
2018-11-22T08:47:03.647Z,33.23
2018-11-22T08:49:33.124Z,35.73
2018-11-22T08:52:00.564Z,34.20
2018-11-22T08:54:27.962Z,33.80
2018-11-22T08:56:55.389Z,35.27
2018-11-22T08:59:22.809Z,34.60
2018-11-22T09:01:50.250Z,35.83
2018-11-22T09:04:37.272Z,36.67
2018-11-22T09:07:04.703Z,35.70
2018-11-22T09:09:32.109Z,38.53
2018-11-22T09:11:59.547Z,37.27
2018-11-22T09:14:26.957Z,38.23
2018-11-22T09:16:54.386Z,35.43
2018-11-22T09:19:21.817Z,36.87
2018-11-22T09:21:49.218Z,35.20
2018-11-22T09:24:17.489Z,38.10
2018-11-22T09:26:44.046Z,37.70
2018-11-22T09:29:11.476Z,39.00
2018-11-22T09:31:38.876Z,39.67
2018-11-22T09:34:06.304Z,37.80
2018-11-22T09:36:33.744Z,36.43
2018-11-22T09:39:01.156Z,37.13
2018-11-22T09:41:28.556Z,37.90
2018-11-22T09:43:55.971Z,37.17
2018-11-22T09:46:23.378Z,37.40
2018-11-22T09:48:50.863Z,36.93
2018-11-22T09:51:18.261Z,38.87
2018-11-22T09:53:45.683Z,38.20
2018-11-22T09:56:13.135Z,34.83
2018-11-22T09:58:40.543Z,38.17
2018-11-22T10:01:07.976Z,38.40
2018-11-22T10:03:35.388Z,37.93
2018-11-22T10:06:02.847Z,36.10
2018-11-22T10:08:30.312Z,34.67
2018-11-22T10:10:57.680Z,37.80
2018-11-22T10:13:25.105Z,38.17
2018-11-22T10:15:52.527Z,36.83
2018-11-22T10:18:19.952Z,35.30
2018-11-22T10:20:47.342Z,35.43
2018-11-22T10:23:14.760Z,34.53
2018-11-22T10:25:42.164Z,36.50
2018-11-22T10:28:09.584Z,37.47
2018-11-22T10:30:36.997Z,34.30
2018-11-22T10:33:04.419Z,37.83
2018-11-22T10:35:31.857Z,37.03
2018-11-22T10:37:59.472Z,34.93
2018-11-22T10:40:26.707Z,35.77
2018-11-22T10:42:54.112Z,34.70
2018-11-22T10:45:21.535Z,34.00
2018-11-22T10:47:48.949Z,37.07
2018-11-22T10:50:16.378Z,35.97
2018-11-22T10:52:43.854Z,35.03
2018-11-22T10:55:11.275Z,34.93
2018-11-22T10:57:38.705Z,35.73
2018-11-22T11:00:06.162Z,34.80
2018-11-22T11:02:52.194Z,35.73
2018-11-22T11:05:19.619Z,35.10
2018-11-22T11:07:47.055Z,34.87
2018-11-22T11:10:14.472Z,35.10
2018-11-22T11:12:41.881Z,35.60
2018-11-22T11:15:09.341Z,33.30
2018-11-22T11:17:36.740Z,33.40
2018-11-22T11:20:04.267Z,34.97
2018-11-22T11:22:31.625Z,36.77
2018-11-22T11:24:59.057Z,34.77
2018-11-22T11:27:26.487Z,33.23
2018-11-22T11:29:53.920Z,32.20
2018-11-22T11:32:21.352Z,32.50
2018-11-22T11:34:48.802Z,32.30
2018-11-22T11:37:16.268Z,36.73
2018-11-22T11:39:43.701Z,36.80
2018-11-22T11:42:11.156Z,34.90
2018-11-22T11:44:38.561Z,34.73
2018-11-22T11:47:05.997Z,35.50
2018-11-22T11:49:33.433Z,34.57
2018-11-22T11:52:00.873Z,34.47
2018-11-22T11:54:28.316Z,34.40
2018-11-22T11:56:55.729Z,34.27
2018-11-22T11:59:23.154Z,33.33
2018-11-22T12:01:50.575Z,34.77
2018-11-22T12:04:18.008Z,33.60
2018-11-22T12:06:45.438Z,33.93
2018-11-22T12:09:12.876Z,34.57
2018-11-22T12:11:40.304Z,33.63
2018-11-22T12:14:07.717Z,33.43
2018-11-22T12:16:35.129Z,32.80
2018-11-22T12:19:02.569Z,33.97
2018-11-22T12:21:29.992Z,32.67
2018-11-22T12:23:57.386Z,34.77
2018-11-22T12:26:24.809Z,33.33
2018-11-22T12:28:52.220Z,31.03
2018-11-22T12:31:19.633Z,33.13
2018-11-22T12:33:47.065Z,34.10
2018-11-22T12:36:14.550Z,32.77
2018-11-22T12:38:41.943Z,34.67
2018-11-22T12:41:09.338Z,32.70
2018-11-22T12:43:36.789Z,33.97
2018-11-22T12:46:04.211Z,34.27
2018-11-22T12:48:31.675Z,36.20
2018-11-22T12:50:59.111Z,35.03
2018-11-22T12:53:26.548Z,35.70
2018-11-22T12:55:53.983Z,35.80
2018-11-22T12:58:21.380Z,32.47
2018-11-22T13:00:48.873Z,34.53
2018-11-22T13:03:16.294Z,35.43
2018-11-22T13:05:43.726Z,36.07
2018-11-22T13:08:11.138Z,36.87
2018-11-22T13:10:38.542Z,35.97
2018-11-22T13:13:06.001Z,33.50
2018-11-22T13:15:33.423Z,35.77
2018-11-22T13:18:00.856Z,33.30
2018-11-22T13:20:28.272Z,34.70
2018-11-22T13:22:55.703Z,35.37
2018-11-22T13:25:23.148Z,32.27
2018-11-22T13:27:50.541Z,34.37
2018-11-22T13:30:17.979Z,36.43
2018-11-22T13:32:46.006Z,36.40
2018-11-22T13:35:13.426Z,37.77
2018-11-22T13:37:40.859Z,37.77
2018-11-22T13:40:08.288Z,38.00
2018-11-22T13:42:35.732Z,37.43
2018-11-22T13:45:03.131Z,39.03
2018-11-22T13:47:30.585Z,39.77
2018-11-22T13:49:57.977Z,40.33
2018-11-22T13:52:25.418Z,38.40
2018-11-22T13:54:52.846Z,40.40
2018-11-22T13:57:20.283Z,40.17
2018-11-22T13:59:47.685Z,40.43
2018-11-22T14:02:15.121Z,39.80
2018-11-22T14:04:42.534Z,38.77
2018-11-22T14:07:10.072Z,36.33
2018-11-22T14:09:37.518Z,36.87
2018-11-22T14:12:04.972Z,37.40
2018-11-22T14:14:32.374Z,36.40
2018-11-22T14:16:59.801Z,36.37
2018-11-22T14:19:27.225Z,37.70
2018-11-22T14:21:54.676Z,37.03
2018-11-22T14:24:22.091Z,37.93
2018-11-22T14:26:49.503Z,37.60
2018-11-22T14:29:16.930Z,37.70
2018-11-22T14:31:44.343Z,38.27
2018-11-22T14:34:11.755Z,36.73
2018-11-22T14:36:39.170Z,43.08
2018-11-22T14:39:06.599Z,38.50
2018-11-22T14:41:34.000Z,38.33
2018-11-22T14:44:01.420Z,34.97
2018-11-22T14:46:28.852Z,35.40
2018-11-22T14:48:56.287Z,33.77
2018-11-22T14:51:23.699Z,36.67
2018-11-22T14:53:51.132Z,36.33
2018-11-22T14:56:18.533Z,35.67
2018-11-22T14:58:46.851Z,34.97
2018-11-22T15:01:14.260Z,35.47
2018-11-22T15:03:41.696Z,37.27
2018-11-22T15:06:12.054Z,35.87
2018-11-22T15:08:39.496Z,33.93
2018-11-22T15:11:06.926Z,37.37
2018-11-22T15:13:34.320Z,35.20
2018-11-22T15:16:01.781Z,37.30
2018-11-22T15:18:29.183Z,36.33
2018-11-22T15:21:01.057Z,37.77
2018-11-22T15:23:24.022Z,36.30
2018-11-22T15:25:51.434Z,38.67
2018-11-22T15:28:18.849Z,38.80
2018-11-22T15:30:46.264Z,37.50
2018-11-22T15:33:13.690Z,36.27
2018-11-22T15:35:41.131Z,42.47
2018-11-22T15:38:08.538Z,38.27
2018-11-22T15:40:35.968Z,38.37
2018-11-22T15:43:03.376Z,37.70
2018-11-22T15:45:35.174Z,39.97
2018-11-22T15:47:58.208Z,38.73
2018-11-22T15:50:25.620Z,37.80
2018-11-22T15:52:53.018Z,39.57
2018-11-22T15:55:21.048Z,38.13
2018-11-22T15:57:47.875Z,40.33
2018-11-22T16:00:15.342Z,39.53
2018-11-22T16:02:42.770Z,39.57
2018-11-22T16:05:10.196Z,39.40
2018-11-22T16:07:37.620Z,41.00
2018-11-22T16:10:05.136Z,41.60
2018-11-22T16:12:32.581Z,40.37
2018-11-22T16:14:59.994Z,40.47
2018-11-22T16:17:27.397Z,39.30
2018-11-22T16:19:54.831Z,39.33
2018-11-22T16:22:22.240Z,39.37
2018-11-22T16:24:49.664Z,41.00
2018-11-22T16:27:17.070Z,40.73
2018-11-22T16:29:44.506Z,39.50
2018-11-22T16:32:11.919Z,38.30
2018-11-22T16:34:39.353Z,38.10
2018-11-22T16:37:06.789Z,39.93
2018-11-22T16:39:34.194Z,39.10
2018-11-22T16:42:01.630Z,39.20
2018-11-22T16:44:29.071Z,38.10
2018-11-22T16:46:56.509Z,40.37
2018-11-22T16:49:23.913Z,38.00
2018-11-22T16:51:51.359Z,38.03
2018-11-22T16:54:18.763Z,37.97
2018-11-22T16:56:46.212Z,36.70
2018-11-22T16:59:13.615Z,34.97
2018-11-22T17:01:41.119Z,38.10
2018-11-22T17:04:08.529Z,36.80
2018-11-22T17:06:35.976Z,36.07
2018-11-22T17:09:03.397Z,35.83
2018-11-22T17:11:33.297Z,39.23
2018-11-22T17:13:58.256Z,36.57
2018-11-22T17:16:25.702Z,35.00
2018-11-22T17:18:53.145Z,36.87
2018-11-22T17:21:20.547Z,36.40
2018-11-22T17:23:47.977Z,35.10
2018-11-22T17:26:15.388Z,36.53
2018-11-22T17:28:42.812Z,36.03
2018-11-22T17:31:10.245Z,35.10
2018-11-22T17:33:37.673Z,43.58
2018-11-22T17:36:05.095Z,34.43
2018-11-22T17:38:32.529Z,34.57
2018-11-22T17:40:59.923Z,34.97
2018-11-22T17:43:27.438Z,33.17
2018-11-22T17:45:54.867Z,35.77
2018-11-22T17:48:22.311Z,37.10
2018-11-22T17:50:49.710Z,37.77
2018-11-22T17:53:17.145Z,42.37
2018-11-22T17:55:44.592Z,37.20
2018-11-22T17:58:12.028Z,36.20
2018-11-22T18:00:39.431Z,35.13
2018-11-22T18:03:06.909Z,41.97
2018-11-22T18:05:34.325Z,41.23
2018-11-22T18:08:01.840Z,42.40
2018-11-22T18:10:29.278Z,45.17
2018-11-22T18:12:56.708Z,43.60
2018-11-22T18:15:24.162Z,45.40
2018-11-22T18:17:51.593Z,43.80
2018-11-22T18:20:19.037Z,42.13
2018-11-22T18:22:46.462Z,40.50
2018-11-22T18:25:13.889Z,40.47
2018-11-22T18:27:41.324Z,47.83
2018-11-22T18:30:08.739Z,45.57
2018-11-22T18:32:36.182Z,43.40
2018-11-22T18:35:03.576Z,44.27
2018-11-22T18:37:31.035Z,39.03
2018-11-22T18:39:58.428Z,39.97
2018-11-22T18:42:25.829Z,40.67
2018-11-22T18:44:53.337Z,41.90
2018-11-22T18:47:22.909Z,44.40
2018-11-22T18:49:50.347Z,41.83
2018-11-22T18:52:17.799Z,39.67
2018-11-22T18:54:45.231Z,39.50
2018-11-22T18:57:12.640Z,41.77
2018-11-22T18:59:40.124Z,40.27
2018-11-22T19:02:08.109Z,41.73
2018-11-22T19:04:34.973Z,41.97
2018-11-22T19:07:02.394Z,40.47
2018-11-22T19:09:29.797Z,42.03
2018-11-22T19:11:57.271Z,41.17
2018-11-22T19:14:24.687Z,39.30
2018-11-22T19:16:52.188Z,41.87
2018-11-22T19:19:19.591Z,41.73
2018-11-22T19:21:47.040Z,41.63
2018-11-22T19:24:14.467Z,38.13
2018-11-22T19:26:41.917Z,40.27
2018-11-22T19:29:09.364Z,44.87
2018-11-22T19:31:36.782Z,40.97
2018-11-22T19:34:04.243Z,42.33
2018-11-22T19:36:31.707Z,43.10
2018-11-22T19:38:59.175Z,43.87
2018-11-22T19:41:26.627Z,46.10
2018-11-22T19:43:54.050Z,45.73
2018-11-22T19:46:21.491Z,45.73
2018-11-22T19:48:48.978Z,45.57
2018-11-22T19:51:16.421Z,44.63
2018-11-22T19:53:43.829Z,44.80
2018-11-22T19:56:11.254Z,45.03
2018-11-22T19:58:38.697Z,44.57
2018-11-22T20:01:07.734Z,48.17
2018-11-22T20:03:33.552Z,50.23
2018-11-22T20:06:01.038Z,47.90
2018-11-22T20:08:28.430Z,44.10
2018-11-22T20:10:55.871Z,45.40
2018-11-22T20:13:23.275Z,45.17
2018-11-22T20:15:50.988Z,46.73
2018-11-22T20:18:18.185Z,46.13
2018-11-22T20:20:49.556Z,47.20
2018-11-22T20:23:13.031Z,44.80
2018-11-22T20:25:40.453Z,44.40
2018-11-22T20:28:07.880Z,46.37
2018-11-22T20:30:35.306Z,49.80
2018-11-22T20:33:02.716Z,43.23
2018-11-22T20:35:30.158Z,46.73
2018-11-22T20:37:57.611Z,44.87
2018-11-22T20:40:25.060Z,44.83
2018-11-22T20:42:52.595Z,40.27
2018-11-22T20:45:20.031Z,41.73
2018-11-22T20:47:47.447Z,41.30
2018-11-22T20:50:14.861Z,41.97
2018-11-22T20:52:42.278Z,43.97
2018-11-22T20:55:09.689Z,43.10
2018-11-22T20:57:37.132Z,43.13
2018-11-22T21:00:04.553Z,44.80
2018-11-22T21:02:31.957Z,43.10
2018-11-22T21:04:59.397Z,45.23
2018-11-22T21:07:26.838Z,44.20
2018-11-22T21:09:54.350Z,42.33
2018-11-22T21:12:21.722Z,41.47
2018-11-22T21:14:49.193Z,43.37
2018-11-22T21:17:16.593Z,40.40
2018-11-22T21:19:44.014Z,40.97
2018-11-22T21:22:11.484Z,42.03
2018-11-22T21:24:38.911Z,37.63
2018-11-22T21:27:06.278Z,42.90
2018-11-22T21:29:33.711Z,41.50
2018-11-22T21:32:01.201Z,40.83
2018-11-22T21:34:28.602Z,47.00
2018-11-22T21:36:56.031Z,42.70
2018-11-22T21:39:23.448Z,44.23
2018-11-22T21:41:50.899Z,40.77
2018-11-22T21:44:18.303Z,41.10
2018-11-22T21:46:45.728Z,43.27
2018-11-22T21:49:13.112Z,40.77
2018-11-22T21:51:40.533Z,40.90
2018-11-22T21:54:07.930Z,42.27
2018-11-22T21:56:35.377Z,41.33
2018-11-22T21:59:02.874Z,40.10
2018-11-22T22:01:30.235Z,42.07
2018-11-22T22:03:57.722Z,40.03
2018-11-22T22:06:25.127Z,38.30
2018-11-22T22:08:52.563Z,43.93
2018-11-22T22:11:19.971Z,43.83
2018-11-22T22:13:47.406Z,41.87
2018-11-22T22:16:14.804Z,42.20
2018-11-22T22:18:42.241Z,38.63
2018-11-22T22:21:09.660Z,39.07
2018-11-22T22:23:37.064Z,39.70
2018-11-22T22:26:04.499Z,34.73
2018-11-22T22:28:31.940Z,34.23
2018-11-22T22:30:59.369Z,36.27
2018-11-22T22:33:26.801Z,39.70
2018-11-22T22:35:54.215Z,40.47
2018-11-22T22:38:21.656Z,38.03
2018-11-22T22:40:49.068Z,40.17
2018-11-22T22:43:16.551Z,40.03
2018-11-22T22:45:43.972Z,37.73
2018-11-22T22:48:11.385Z,37.47
2018-11-22T22:50:38.828Z,39.50
2018-11-22T22:53:06.248Z,38.07
2018-11-22T22:55:33.676Z,34.03
2018-11-22T22:58:01.083Z,34.47
2018-11-22T23:00:28.525Z,35.23
2018-11-22T23:02:55.920Z,34.20
2018-11-22T23:05:23.370Z,34.37
2018-11-22T23:07:50.779Z,36.40
2018-11-22T23:10:18.204Z,38.20
2018-11-22T23:12:45.635Z,37.37
2018-11-22T23:15:13.034Z,36.97
2018-11-22T23:17:40.482Z,38.97
2018-11-22T23:20:07.882Z,36.90
2018-11-22T23:22:35.296Z,40.00
2018-11-22T23:25:02.753Z,35.43
2018-11-22T23:27:30.174Z,37.87
2018-11-22T23:29:57.600Z,35.57
2018-11-22T23:32:25.022Z,35.20
2018-11-22T23:34:52.465Z,34.57
2018-11-22T23:37:19.865Z,34.77
2018-11-22T23:39:47.285Z,35.10
2018-11-22T23:42:14.710Z,33.20
2018-11-22T23:44:42.150Z,38.40
2018-11-22T23:47:09.552Z,35.80
2018-11-22T23:49:37.005Z,35.40
2018-11-22T23:52:04.383Z,38.03
2018-11-22T23:54:31.801Z,41.60
2018-11-22T23:56:59.230Z,39.83
2018-11-22T23:59:26.640Z,38.57
